sensor_id;sensor_type;location;lat;lon;timestamp;temperature;humidity
51908;DHT22;39320;53.214;6.556;2023-06-01T00:01:56;12.90;99.90
51908;DHT22;39320;53.214;6.556;2023-06-01T00:04:22;13.00;99.90
51908;DHT22;39320;53.214;6.556;2023-06-01T00:06:47;13.00;99.90
51908;DHT22;39320;53.214;6.556;2023-06-01T00:09:13;13.10;99.90
51908;DHT22;39320;53.214;6.556;2023-06-01T00:11:39;13.10;99.90
51908;DHT22;39320;53.214;6.556;2023-06-01T00:14:05;13.00;99.90
51908;DHT22;39320;53.214;6.556;2023-06-01T00:16:30;13.00;99.90
51908;DHT22;39320;53.214;6.556;2023-06-01T00:18:57;13.10;99.90
51908;DHT22;39320;53.214;6.556;2023-06-01T00:21:27;13.10;99.90
51908;DHT22;39320;53.214;6.556;2023-06-01T00:23:53;13.00;99.90
51908;DHT22;39320;53.214;6.556;2023-06-01T00:26:19;13.00;99.90
51908;DHT22;39320;53.214;6.556;2023-06-01T00:28:46;13.00;99.90
51908;DHT22;39320;53.214;6.556;2023-06-01T00:31:12;12.90;99.90
51908;DHT22;39320;53.214;6.556;2023-06-01T00:33:37;12.80;99.90
51908;DHT22;39320;53.214;6.556;2023-06-01T00:36:03;12.80;99.90
51908;DHT22;39320;53.214;6.556;2023-06-01T00:38:29;12.80;99.90
51908;DHT22;39320;53.214;6.556;2023-06-01T00:40:55;12.80;99.90
51908;DHT22;39320;53.214;6.556;2023-06-01T00:43:21;12.80;99.90
51908;DHT22;39320;53.214;6.556;2023-06-01T00:45:46;12.90;99.90
51908;DHT22;39320;53.214;6.556;2023-06-01T00:48:14;12.90;99.90
51908;DHT22;39320;53.214;6.556;2023-06-01T00:50:41;12.90;99.90
51908;DHT22;39320;53.214;6.556;2023-06-01T00:53:11;12.90;99.90
51908;DHT22;39320;53.214;6.556;2023-06-01T00:55:38;13.00;99.90
51908;DHT22;39320;53.214;6.556;2023-06-01T00:58:06;12.90;99.90
51908;DHT22;39320;53.214;6.556;2023-06-01T01:00:32;12.90;99.90
51908;DHT22;39320;53.214;6.556;2023-06-01T01:02:58;12.80;99.90
51908;DHT22;39320;53.214;6.556;2023-06-01T01:05:26;12.90;99.90
51908;DHT22;39320;53.214;6.556;2023-06-01T01:10:35;12.90;99.90
51908;DHT22;39320;53.214;6.556;2023-06-01T01:13:30;12.80;99.90
51908;DHT22;39320;53.214;6.556;2023-06-01T01:21:28;12.80;99.90
51908;DHT22;39320;53.214;6.556;2023-06-01T01:29:46;13.00;99.90
51908;DHT22;39320;53.214;6.556;2023-06-01T01:32:12;13.10;99.90
51908;DHT22;39320;53.214;6.556;2023-06-01T01:34:40;13.10;99.90
51908;DHT22;39320;53.214;6.556;2023-06-01T01:37:06;13.00;99.90
51908;DHT22;39320;53.214;6.556;2023-06-01T01:39:32;13.00;99.90
51908;DHT22;39320;53.214;6.556;2023-06-01T01:41:58;12.90;99.90
51908;DHT22;39320;53.214;6.556;2023-06-01T01:44:23;13.00;99.90
51908;DHT22;39320;53.214;6.556;2023-06-01T01:47:24;13.00;99.90
51908;DHT22;39320;53.214;6.556;2023-06-01T01:49:51;13.00;99.90
51908;DHT22;39320;53.214;6.556;2023-06-01T01:52:22;12.90;99.90
51908;DHT22;39320;53.214;6.556;2023-06-01T01:54:51;12.90;99.90
51908;DHT22;39320;53.214;6.556;2023-06-01T01:57:18;12.90;99.90
51908;DHT22;39320;53.214;6.556;2023-06-01T01:59:45;12.90;99.90
51908;DHT22;39320;53.214;6.556;2023-06-01T02:02:12;12.90;99.90
51908;DHT22;39320;53.214;6.556;2023-06-01T02:04:39;12.90;99.90
51908;DHT22;39320;53.214;6.556;2023-06-01T02:07:06;12.90;99.90
51908;DHT22;39320;53.214;6.556;2023-06-01T02:09:32;12.90;99.90
51908;DHT22;39320;53.214;6.556;2023-06-01T02:11:58;13.00;99.90
51908;DHT22;39320;53.214;6.556;2023-06-01T02:14:23;12.90;99.90
51908;DHT22;39320;53.214;6.556;2023-06-01T02:16:49;12.90;99.90
51908;DHT22;39320;53.214;6.556;2023-06-01T02:19:15;12.90;99.90
51908;DHT22;39320;53.214;6.556;2023-06-01T02:21:42;13.00;99.90
51908;DHT22;39320;53.214;6.556;2023-06-01T02:24:08;13.00;99.90
51908;DHT22;39320;53.214;6.556;2023-06-01T02:26:35;13.00;99.90
51908;DHT22;39320;53.214;6.556;2023-06-01T02:29:01;12.90;99.90
51908;DHT22;39320;53.214;6.556;2023-06-01T02:31:28;12.80;99.90
51908;DHT22;39320;53.214;6.556;2023-06-01T02:33:54;12.80;99.90
51908;DHT22;39320;53.214;6.556;2023-06-01T02:36:20;12.90;99.90
51908;DHT22;39320;53.214;6.556;2023-06-01T02:38:46;12.90;99.90
51908;DHT22;39320;53.214;6.556;2023-06-01T02:41:13;12.80;99.90
51908;DHT22;39320;53.214;6.556;2023-06-01T02:43:38;12.90;99.90
51908;DHT22;39320;53.214;6.556;2023-06-01T02:46:04;12.90;99.90
51908;DHT22;39320;53.214;6.556;2023-06-01T02:48:30;12.90;99.90
51908;DHT22;39320;53.214;6.556;2023-06-01T02:50:56;12.90;99.90
51908;DHT22;39320;53.214;6.556;2023-06-01T02:53:22;12.80;99.90
51908;DHT22;39320;53.214;6.556;2023-06-01T02:55:47;12.70;99.90
51908;DHT22;39320;53.214;6.556;2023-06-01T02:58:13;12.80;99.90
51908;DHT22;39320;53.214;6.556;2023-06-01T03:00:45;12.80;99.90
51908;DHT22;39320;53.214;6.556;2023-06-01T03:03:11;12.80;99.90
51908;DHT22;39320;53.214;6.556;2023-06-01T03:05:37;12.80;99.90
51908;DHT22;39320;53.214;6.556;2023-06-01T03:08:04;12.80;99.90
51908;DHT22;39320;53.214;6.556;2023-06-01T03:10:32;12.80;99.90
51908;DHT22;39320;53.214;6.556;2023-06-01T03:12:57;12.80;99.90
51908;DHT22;39320;53.214;6.556;2023-06-01T03:15:23;12.80;99.90
51908;DHT22;39320;53.214;6.556;2023-06-01T03:17:49;12.80;99.90
51908;DHT22;39320;53.214;6.556;2023-06-01T03:20:15;12.80;99.90
51908;DHT22;39320;53.214;6.556;2023-06-01T03:22:42;12.80;99.90
51908;DHT22;39320;53.214;6.556;2023-06-01T03:25:08;12.80;99.90
51908;DHT22;39320;53.214;6.556;2023-06-01T03:27:35;12.80;99.90
51908;DHT22;39320;53.214;6.556;2023-06-01T03:30:01;12.80;99.90
51908;DHT22;39320;53.214;6.556;2023-06-01T03:32:27;12.80;99.90
51908;DHT22;39320;53.214;6.556;2023-06-01T03:34:53;12.80;99.90
51908;DHT22;39320;53.214;6.556;2023-06-01T03:37:19;12.90;99.90
51908;DHT22;39320;53.214;6.556;2023-06-01T03:39:44;12.90;99.90
51908;DHT22;39320;53.214;6.556;2023-06-01T03:42:11;12.90;99.90
51908;DHT22;39320;53.214;6.556;2023-06-01T03:44:38;13.00;99.90
51908;DHT22;39320;53.214;6.556;2023-06-01T03:47:04;13.00;99.90
51908;DHT22;39320;53.214;6.556;2023-06-01T03:49:30;13.00;99.90
51908;DHT22;39320;53.214;6.556;2023-06-01T03:51:56;13.00;99.90
51908;DHT22;39320;53.214;6.556;2023-06-01T03:54:21;12.90;99.90
51908;DHT22;39320;53.214;6.556;2023-06-01T03:56:47;12.90;99.90
51908;DHT22;39320;53.214;6.556;2023-06-01T03:59:13;12.90;99.90
51908;DHT22;39320;53.214;6.556;2023-06-01T04:01:39;13.00;99.90
51908;DHT22;39320;53.214;6.556;2023-06-01T04:04:06;13.00;99.90
51908;DHT22;39320;53.214;6.556;2023-06-01T04:06:35;13.10;99.90
51908;DHT22;39320;53.214;6.556;2023-06-01T04:09:02;13.10;99.90
51908;DHT22;39320;53.214;6.556;2023-06-01T04:11:32;13.20;99.90
51908;DHT22;39320;53.214;6.556;2023-06-01T04:13:59;13.10;99.90
51908;DHT22;39320;53.214;6.556;2023-06-01T04:16:25;13.10;99.90
51908;DHT22;39320;53.214;6.556;2023-06-01T04:18:51;13.00;99.90
51908;DHT22;39320;53.214;6.556;2023-06-01T04:21:17;13.00;99.90
51908;DHT22;39320;53.214;6.556;2023-06-01T04:23:43;13.00;99.90
51908;DHT22;39320;53.214;6.556;2023-06-01T04:26:08;13.00;99.90
51908;DHT22;39320;53.214;6.556;2023-06-01T04:28:36;13.00;99.90
51908;DHT22;39320;53.214;6.556;2023-06-01T04:31:02;13.10;99.90
51908;DHT22;39320;53.214;6.556;2023-06-01T04:33:28;13.00;99.90
51908;DHT22;39320;53.214;6.556;2023-06-01T04:35:53;13.00;99.90
51908;DHT22;39320;53.214;6.556;2023-06-01T04:38:20;13.00;99.90
51908;DHT22;39320;53.214;6.556;2023-06-01T04:40:47;12.90;99.90
51908;DHT22;39320;53.214;6.556;2023-06-01T04:43:13;12.90;99.90
51908;DHT22;39320;53.214;6.556;2023-06-01T04:45:45;12.80;99.90
51908;DHT22;39320;53.214;6.556;2023-06-01T04:48:13;12.80;99.90
51908;DHT22;39320;53.214;6.556;2023-06-01T04:50:42;12.80;99.90
51908;DHT22;39320;53.214;6.556;2023-06-01T04:53:08;12.80;99.90
51908;DHT22;39320;53.214;6.556;2023-06-01T04:55:34;12.80;99.90
51908;DHT22;39320;53.214;6.556;2023-06-01T04:57:59;12.80;99.90
51908;DHT22;39320;53.214;6.556;2023-06-01T05:00:25;12.90;99.90
51908;DHT22;39320;53.214;6.556;2023-06-01T05:02:51;12.90;99.90
51908;DHT22;39320;53.214;6.556;2023-06-01T05:05:17;12.90;99.90
51908;DHT22;39320;53.214;6.556;2023-06-01T05:07:43;12.90;99.90
51908;DHT22;39320;53.214;6.556;2023-06-01T05:10:11;12.90;99.90
51908;DHT22;39320;53.214;6.556;2023-06-01T05:12:37;13.00;99.90
51908;DHT22;39320;53.214;6.556;2023-06-01T05:15:06;13.00;99.90
51908;DHT22;39320;53.214;6.556;2023-06-01T05:17:33;12.90;99.90
51908;DHT22;39320;53.214;6.556;2023-06-01T05:19:59;12.90;99.90
51908;DHT22;39320;53.214;6.556;2023-06-01T05:22:25;13.00;99.90
51908;DHT22;39320;53.214;6.556;2023-06-01T05:24:51;13.00;99.90
51908;DHT22;39320;53.214;6.556;2023-06-01T05:27:17;13.00;99.90
51908;DHT22;39320;53.214;6.556;2023-06-01T05:29:43;13.00;99.90
51908;DHT22;39320;53.214;6.556;2023-06-01T05:32:09;13.00;99.90
51908;DHT22;39320;53.214;6.556;2023-06-01T05:34:35;13.10;99.90
51908;DHT22;39320;53.214;6.556;2023-06-01T05:37:02;13.10;99.90
51908;DHT22;39320;53.214;6.556;2023-06-01T05:39:28;13.10;99.90
51908;DHT22;39320;53.214;6.556;2023-06-01T05:41:54;13.10;99.90
51908;DHT22;39320;53.214;6.556;2023-06-01T05:44:20;13.10;99.90
51908;DHT22;39320;53.214;6.556;2023-06-01T05:46:46;13.00;99.90
51908;DHT22;39320;53.214;6.556;2023-06-01T05:49:12;13.10;99.90
51908;DHT22;39320;53.214;6.556;2023-06-01T05:51:37;13.00;99.90
51908;DHT22;39320;53.214;6.556;2023-06-01T05:54:05;12.90;99.90
51908;DHT22;39320;53.214;6.556;2023-06-01T05:56:32;12.90;99.90
51908;DHT22;39320;53.214;6.556;2023-06-01T05:58:59;12.90;99.90
51908;DHT22;39320;53.214;6.556;2023-06-01T06:01:24;13.00;99.90
51908;DHT22;39320;53.214;6.556;2023-06-01T06:03:53;13.00;99.90
51908;DHT22;39320;53.214;6.556;2023-06-01T06:06:19;13.00;99.90
51908;DHT22;39320;53.214;6.556;2023-06-01T06:08:44;13.10;99.90
51908;DHT22;39320;53.214;6.556;2023-06-01T06:11:10;13.10;99.90
51908;DHT22;39320;53.214;6.556;2023-06-01T06:13:36;13.20;99.90
51908;DHT22;39320;53.214;6.556;2023-06-01T06:16:02;13.20;99.90
51908;DHT22;39320;53.214;6.556;2023-06-01T06:18:28;13.20;99.90
51908;DHT22;39320;53.214;6.556;2023-06-01T06:20:53;13.20;99.90
51908;DHT22;39320;53.214;6.556;2023-06-01T06:23:19;13.20;99.90
51908;DHT22;39320;53.214;6.556;2023-06-01T06:25:46;13.20;99.90
51908;DHT22;39320;53.214;6.556;2023-06-01T06:28:14;13.10;99.90
51908;DHT22;39320;53.214;6.556;2023-06-01T06:30:40;13.10;99.90
51908;DHT22;39320;53.214;6.556;2023-06-01T06:33:05;13.20;99.90
51908;DHT22;39320;53.214;6.556;2023-06-01T06:35:31;13.20;99.90
51908;DHT22;39320;53.214;6.556;2023-06-01T06:37:57;13.10;99.90
51908;DHT22;39320;53.214;6.556;2023-06-01T06:40:23;13.20;99.90
51908;DHT22;39320;53.214;6.556;2023-06-01T06:42:49;13.20;99.90
51908;DHT22;39320;53.214;6.556;2023-06-01T06:45:16;13.20;99.90
51908;DHT22;39320;53.214;6.556;2023-06-01T06:47:42;13.20;99.90
51908;DHT22;39320;53.214;6.556;2023-06-01T06:50:11;13.30;99.90
51908;DHT22;39320;53.214;6.556;2023-06-01T06:52:38;13.30;99.90
51908;DHT22;39320;53.214;6.556;2023-06-01T06:55:04;13.20;99.90
51908;DHT22;39320;53.214;6.556;2023-06-01T06:57:30;13.10;99.90
51908;DHT22;39320;53.214;6.556;2023-06-01T06:59:55;13.20;99.90
51908;DHT22;39320;53.214;6.556;2023-06-01T07:02:21;13.10;99.90
51908;DHT22;39320;53.214;6.556;2023-06-01T07:04:47;13.10;99.90
51908;DHT22;39320;53.214;6.556;2023-06-01T07:07:14;13.20;99.90
51908;DHT22;39320;53.214;6.556;2023-06-01T07:09:40;13.10;99.90
51908;DHT22;39320;53.214;6.556;2023-06-01T07:12:06;13.20;99.90
51908;DHT22;39320;53.214;6.556;2023-06-01T07:14:33;13.20;99.90
51908;DHT22;39320;53.214;6.556;2023-06-01T07:17:00;13.30;99.90
51908;DHT22;39320;53.214;6.556;2023-06-01T07:19:26;13.30;99.90
51908;DHT22;39320;53.214;6.556;2023-06-01T07:21:59;13.30;99.90
51908;DHT22;39320;53.214;6.556;2023-06-01T07:24:25;13.20;99.90
51908;DHT22;39320;53.214;6.556;2023-06-01T07:26:51;13.20;99.90
51908;DHT22;39320;53.214;6.556;2023-06-01T07:29:20;13.20;99.90
51908;DHT22;39320;53.214;6.556;2023-06-01T07:31:46;13.20;99.90
51908;DHT22;39320;53.214;6.556;2023-06-01T07:34:12;13.20;99.90
51908;DHT22;39320;53.214;6.556;2023-06-01T07:36:39;13.30;99.90
51908;DHT22;39320;53.214;6.556;2023-06-01T07:39:06;13.20;99.90
51908;DHT22;39320;53.214;6.556;2023-06-01T07:41:34;13.30;99.90
51908;DHT22;39320;53.214;6.556;2023-06-01T07:44:00;13.30;99.90
51908;DHT22;39320;53.214;6.556;2023-06-01T07:46:26;13.30;99.90
51908;DHT22;39320;53.214;6.556;2023-06-01T07:48:52;13.30;99.90
51908;DHT22;39320;53.214;6.556;2023-06-01T07:51:18;13.30;99.90
51908;DHT22;39320;53.214;6.556;2023-06-01T07:53:43;13.30;99.90
51908;DHT22;39320;53.214;6.556;2023-06-01T07:56:09;13.40;99.90
51908;DHT22;39320;53.214;6.556;2023-06-01T07:58:36;13.40;99.90
51908;DHT22;39320;53.214;6.556;2023-06-01T08:01:03;13.40;99.90
51908;DHT22;39320;53.214;6.556;2023-06-01T08:03:30;13.30;99.90
51908;DHT22;39320;53.214;6.556;2023-06-01T08:05:59;13.40;99.90
51908;DHT22;39320;53.214;6.556;2023-06-01T08:08:28;13.40;99.90
51908;DHT22;39320;53.214;6.556;2023-06-01T08:10:54;13.40;99.90
51908;DHT22;39320;53.214;6.556;2023-06-01T08:13:20;13.30;99.90
51908;DHT22;39320;53.214;6.556;2023-06-01T08:15:46;13.30;99.90
51908;DHT22;39320;53.214;6.556;2023-06-01T08:18:15;13.30;99.90
51908;DHT22;39320;53.214;6.556;2023-06-01T08:20:41;13.30;99.90
51908;DHT22;39320;53.214;6.556;2023-06-01T08:23:08;13.30;99.90
51908;DHT22;39320;53.214;6.556;2023-06-01T08:25:40;13.30;99.90
51908;DHT22;39320;53.214;6.556;2023-06-01T08:28:06;13.30;99.90
51908;DHT22;39320;53.214;6.556;2023-06-01T08:30:32;13.30;99.90
51908;DHT22;39320;53.214;6.556;2023-06-01T08:32:58;13.30;99.90
51908;DHT22;39320;53.214;6.556;2023-06-01T08:35:24;13.40;99.90
51908;DHT22;39320;53.214;6.556;2023-06-01T08:37:50;13.40;99.90
51908;DHT22;39320;53.214;6.556;2023-06-01T08:40:16;13.40;99.90
51908;DHT22;39320;53.214;6.556;2023-06-01T08:45:12;13.30;99.90
51908;DHT22;39320;53.214;6.556;2023-06-01T08:47:39;13.30;99.90
51908;DHT22;39320;53.214;6.556;2023-06-01T08:50:08;13.30;99.90
51908;DHT22;39320;53.214;6.556;2023-06-01T08:52:36;13.40;99.90
51908;DHT22;39320;53.214;6.556;2023-06-01T08:55:03;13.50;99.90
51908;DHT22;39320;53.214;6.556;2023-06-01T08:57:30;13.40;99.90
51908;DHT22;39320;53.214;6.556;2023-06-01T08:59:57;13.40;99.90
51908;DHT22;39320;53.214;6.556;2023-06-01T09:02:24;13.40;99.90
51908;DHT22;39320;53.214;6.556;2023-06-01T09:04:50;13.40;99.90
51908;DHT22;39320;53.214;6.556;2023-06-01T09:07:16;13.40;99.90
51908;DHT22;39320;53.214;6.556;2023-06-01T09:09:43;13.30;99.90
51908;DHT22;39320;53.214;6.556;2023-06-01T09:12:19;13.30;99.90
51908;DHT22;39320;53.214;6.556;2023-06-01T09:14:45;13.30;99.90
51908;DHT22;39320;53.214;6.556;2023-06-01T09:17:20;13.40;99.90
51908;DHT22;39320;53.214;6.556;2023-06-01T09:19:49;13.30;99.90
51908;DHT22;39320;53.214;6.556;2023-06-01T09:22:15;13.30;99.90
51908;DHT22;39320;53.214;6.556;2023-06-01T09:24:58;13.30;99.90
51908;DHT22;39320;53.214;6.556;2023-06-01T09:27:24;13.30;99.90
51908;DHT22;39320;53.214;6.556;2023-06-01T09:29:58;13.30;99.90
51908;DHT22;39320;53.214;6.556;2023-06-01T09:32:26;13.20;99.90
51908;DHT22;39320;53.214;6.556;2023-06-01T09:34:52;13.30;99.90
51908;DHT22;39320;53.214;6.556;2023-06-01T09:37:20;13.30;99.90
51908;DHT22;39320;53.214;6.556;2023-06-01T09:39:46;13.40;99.90
51908;DHT22;39320;53.214;6.556;2023-06-01T09:42:11;13.40;99.90
51908;DHT22;39320;53.214;6.556;2023-06-01T09:44:40;13.40;99.90
51908;DHT22;39320;53.214;6.556;2023-06-01T09:47:08;13.30;99.90
51908;DHT22;39320;53.214;6.556;2023-06-01T09:49:45;13.40;99.90
51908;DHT22;39320;53.214;6.556;2023-06-01T09:52:16;13.40;99.90
51908;DHT22;39320;53.214;6.556;2023-06-01T09:54:50;13.40;99.90
51908;DHT22;39320;53.214;6.556;2023-06-01T09:57:26;13.40;99.90
51908;DHT22;39320;53.214;6.556;2023-06-01T09:59:52;13.30;99.90
51908;DHT22;39320;53.214;6.556;2023-06-01T10:02:20;13.30;99.90
51908;DHT22;39320;53.214;6.556;2023-06-01T10:04:54;13.30;99.90
51908;DHT22;39320;53.214;6.556;2023-06-01T10:07:23;13.40;99.90
51908;DHT22;39320;53.214;6.556;2023-06-01T10:09:52;13.20;99.90
51908;DHT22;39320;53.214;6.556;2023-06-01T10:12:19;13.40;99.90
51908;DHT22;39320;53.214;6.556;2023-06-01T10:14:45;13.40;99.90
51908;DHT22;39320;53.214;6.556;2023-06-01T10:17:11;13.50;99.90
51908;DHT22;39320;53.214;6.556;2023-06-01T10:19:37;13.50;99.90
51908;DHT22;39320;53.214;6.556;2023-06-01T10:22:06;13.50;99.90
51908;DHT22;39320;53.214;6.556;2023-06-01T10:24:32;13.50;99.90
51908;DHT22;39320;53.214;6.556;2023-06-01T10:27:04;13.60;99.90
51908;DHT22;39320;53.214;6.556;2023-06-01T10:29:33;13.50;99.90
51908;DHT22;39320;53.214;6.556;2023-06-01T10:31:59;13.50;99.90
51908;DHT22;39320;53.214;6.556;2023-06-01T10:34:55;13.50;99.90
51908;DHT22;39320;53.214;6.556;2023-06-01T10:37:21;13.50;99.90
51908;DHT22;39320;53.214;6.556;2023-06-01T10:39:46;13.50;99.90
51908;DHT22;39320;53.214;6.556;2023-06-01T10:52:38;13.40;99.90
51908;DHT22;39320;53.214;6.556;2023-06-01T10:57:34;13.50;99.90
51908;DHT22;39320;53.214;6.556;2023-06-01T11:05:51;13.50;99.90
51908;DHT22;39320;53.214;6.556;2023-06-01T11:13:22;13.60;99.90
51908;DHT22;39320;53.214;6.556;2023-06-01T11:18:53;13.70;99.90
51908;DHT22;39320;53.214;6.556;2023-06-01T11:21:39;13.70;99.90
51908;DHT22;39320;53.214;6.556;2023-06-01T11:24:11;13.70;99.90
51908;DHT22;39320;53.214;6.556;2023-06-01T11:26:44;13.80;99.90
51908;DHT22;39320;53.214;6.556;2023-06-01T11:29:24;13.80;99.90
51908;DHT22;39320;53.214;6.556;2023-06-01T11:31:55;13.80;99.90
51908;DHT22;39320;53.214;6.556;2023-06-01T11:34:35;13.80;99.90
51908;DHT22;39320;53.214;6.556;2023-06-01T11:37:05;13.90;99.90
51908;DHT22;39320;53.214;6.556;2023-06-01T11:39:31;13.90;99.90
51908;DHT22;39320;53.214;6.556;2023-06-01T11:42:13;13.90;99.90
51908;DHT22;39320;53.214;6.556;2023-06-01T11:44:44;13.90;99.90
51908;DHT22;39320;53.214;6.556;2023-06-01T11:47:11;13.80;99.90
51908;DHT22;39320;53.214;6.556;2023-06-01T11:49:45;13.80;99.90
51908;DHT22;39320;53.214;6.556;2023-06-01T11:52:14;13.80;99.90
51908;DHT22;39320;53.214;6.556;2023-06-01T11:54:40;13.80;99.90
51908;DHT22;39320;53.214;6.556;2023-06-01T11:57:06;13.80;99.90
51908;DHT22;39320;53.214;6.556;2023-06-01T11:59:40;13.70;99.90
51908;DHT22;39320;53.214;6.556;2023-06-01T12:02:22;13.70;99.90
51908;DHT22;39320;53.214;6.556;2023-06-01T12:05:03;13.60;99.90
51908;DHT22;39320;53.214;6.556;2023-06-01T12:07:45;13.60;99.90
51908;DHT22;39320;53.214;6.556;2023-06-01T12:10:12;14.00;99.90
51908;DHT22;39320;53.214;6.556;2023-06-01T12:12:43;13.60;99.90
51908;DHT22;39320;53.214;6.556;2023-06-01T12:15:14;13.60;99.90
51908;DHT22;39320;53.214;6.556;2023-06-01T12:17:51;13.60;99.90
51908;DHT22;39320;53.214;6.556;2023-06-01T12:20:36;13.60;99.90
51908;DHT22;39320;53.214;6.556;2023-06-01T12:28:14;13.70;99.90
51908;DHT22;39320;53.214;6.556;2023-06-01T12:30:40;13.60;99.90
51908;DHT22;39320;53.214;6.556;2023-06-01T12:33:05;13.60;99.90
51908;DHT22;39320;53.214;6.556;2023-06-01T12:35:32;13.60;99.90
51908;DHT22;39320;53.214;6.556;2023-06-01T12:38:10;13.60;99.90
51908;DHT22;39320;53.214;6.556;2023-06-01T12:40:39;13.60;99.90
51908;DHT22;39320;53.214;6.556;2023-06-01T12:43:05;13.60;99.90
51908;DHT22;39320;53.214;6.556;2023-06-01T12:45:42;13.60;99.90
51908;DHT22;39320;53.214;6.556;2023-06-01T12:48:08;13.60;99.90
51908;DHT22;39320;53.214;6.556;2023-06-01T12:50:34;13.50;99.90
51908;DHT22;39320;53.214;6.556;2023-06-01T12:53:07;13.40;99.90
51908;DHT22;39320;53.214;6.556;2023-06-01T12:55:33;13.40;99.90
51908;DHT22;39320;53.214;6.556;2023-06-01T12:57:59;13.40;99.90
51908;DHT22;39320;53.214;6.556;2023-06-01T13:00:25;13.50;99.90
51908;DHT22;39320;53.214;6.556;2023-06-01T13:02:50;13.50;99.90
51908;DHT22;39320;53.214;6.556;2023-06-01T13:05:17;13.50;99.90
51908;DHT22;39320;53.214;6.556;2023-06-01T13:07:43;13.50;99.90
51908;DHT22;39320;53.214;6.556;2023-06-01T13:10:13;13.50;99.90
51908;DHT22;39320;53.214;6.556;2023-06-01T13:12:39;13.50;99.90
51908;DHT22;39320;53.214;6.556;2023-06-01T13:15:07;13.50;99.90
51908;DHT22;39320;53.214;6.556;2023-06-01T13:17:33;13.60;99.90
51908;DHT22;39320;53.214;6.556;2023-06-01T13:19:58;13.60;99.90
51908;DHT22;39320;53.214;6.556;2023-06-01T13:22:25;13.60;99.90
51908;DHT22;39320;53.214;6.556;2023-06-01T13:24:50;13.50;99.90
51908;DHT22;39320;53.214;6.556;2023-06-01T13:27:16;13.50;99.90
51908;DHT22;39320;53.214;6.556;2023-06-01T13:29:42;13.40;99.90
51908;DHT22;39320;53.214;6.556;2023-06-01T13:32:08;13.50;99.90
51908;DHT22;39320;53.214;6.556;2023-06-01T13:34:34;13.50;99.90
51908;DHT22;39320;53.214;6.556;2023-06-01T13:37:01;13.60;99.90
51908;DHT22;39320;53.214;6.556;2023-06-01T13:39:27;13.60;99.90
51908;DHT22;39320;53.214;6.556;2023-06-01T13:41:52;13.60;99.90
51908;DHT22;39320;53.214;6.556;2023-06-01T13:44:18;13.70;99.90
51908;DHT22;39320;53.214;6.556;2023-06-01T13:46:44;13.70;99.90
51908;DHT22;39320;53.214;6.556;2023-06-01T13:49:10;13.70;99.90
51908;DHT22;39320;53.214;6.556;2023-06-01T13:51:36;13.60;99.90
51908;DHT22;39320;53.214;6.556;2023-06-01T13:54:05;13.60;99.90
51908;DHT22;39320;53.214;6.556;2023-06-01T13:56:31;13.50;99.90
51908;DHT22;39320;53.214;6.556;2023-06-01T13:58:57;13.50;99.90
51908;DHT22;39320;53.214;6.556;2023-06-01T14:01:23;13.50;99.90
51908;DHT22;39320;53.214;6.556;2023-06-01T14:03:49;13.50;99.90
51908;DHT22;39320;53.214;6.556;2023-06-01T14:06:16;13.50;99.90
51908;DHT22;39320;53.214;6.556;2023-06-01T14:08:43;13.50;99.90
51908;DHT22;39320;53.214;6.556;2023-06-01T14:11:08;13.60;99.90
51908;DHT22;39320;53.214;6.556;2023-06-01T14:13:34;13.60;99.90
51908;DHT22;39320;53.214;6.556;2023-06-01T14:16:00;13.60;99.90
51908;DHT22;39320;53.214;6.556;2023-06-01T14:18:29;13.60;99.90
51908;DHT22;39320;53.214;6.556;2023-06-01T14:20:55;13.70;99.90
51908;DHT22;39320;53.214;6.556;2023-06-01T14:23:21;13.60;99.90
51908;DHT22;39320;53.214;6.556;2023-06-01T14:25:46;13.60;99.90
51908;DHT22;39320;53.214;6.556;2023-06-01T14:28:12;13.70;99.90
51908;DHT22;39320;53.214;6.556;2023-06-01T14:30:38;13.70;99.90
51908;DHT22;39320;53.214;6.556;2023-06-01T14:33:05;13.80;99.90
51908;DHT22;39320;53.214;6.556;2023-06-01T14:35:31;13.70;99.90
51908;DHT22;39320;53.214;6.556;2023-06-01T14:37:58;13.70;99.90
51908;DHT22;39320;53.214;6.556;2023-06-01T14:40:24;13.70;99.90
51908;DHT22;39320;53.214;6.556;2023-06-01T14:42:50;13.70;99.90
51908;DHT22;39320;53.214;6.556;2023-06-01T14:45:16;13.60;99.90
51908;DHT22;39320;53.214;6.556;2023-06-01T14:47:44;13.70;99.90
51908;DHT22;39320;53.214;6.556;2023-06-01T14:50:10;13.70;99.90
51908;DHT22;39320;53.214;6.556;2023-06-01T14:52:36;13.70;99.90
51908;DHT22;39320;53.214;6.556;2023-06-01T14:55:02;13.70;99.90
51908;DHT22;39320;53.214;6.556;2023-06-01T14:57:28;13.80;99.90
51908;DHT22;39320;53.214;6.556;2023-06-01T14:59:54;13.80;99.90
51908;DHT22;39320;53.214;6.556;2023-06-01T15:02:20;13.70;99.90
51908;DHT22;39320;53.214;6.556;2023-06-01T15:04:45;13.70;99.90
51908;DHT22;39320;53.214;6.556;2023-06-01T15:07:11;13.60;99.90
51908;DHT22;39320;53.214;6.556;2023-06-01T15:09:37;13.60;99.90
51908;DHT22;39320;53.214;6.556;2023-06-01T15:12:03;13.50;99.90
51908;DHT22;39320;53.214;6.556;2023-06-01T15:14:29;13.50;99.90
51908;DHT22;39320;53.214;6.556;2023-06-01T15:16:55;13.60;99.90
51908;DHT22;39320;53.214;6.556;2023-06-01T15:19:20;13.50;99.90
51908;DHT22;39320;53.214;6.556;2023-06-01T15:21:46;13.60;99.90
51908;DHT22;39320;53.214;6.556;2023-06-01T15:24:12;13.70;99.90
51908;DHT22;39320;53.214;6.556;2023-06-01T15:26:38;13.70;99.90
51908;DHT22;39320;53.214;6.556;2023-06-01T15:29:04;13.70;99.90
51908;DHT22;39320;53.214;6.556;2023-06-01T15:31:30;13.70;99.90
51908;DHT22;39320;53.214;6.556;2023-06-01T15:33:55;13.70;99.90
51908;DHT22;39320;53.214;6.556;2023-06-01T15:36:21;13.60;99.90
51908;DHT22;39320;53.214;6.556;2023-06-01T15:38:47;13.60;99.90
51908;DHT22;39320;53.214;6.556;2023-06-01T15:41:13;13.60;99.90
51908;DHT22;39320;53.214;6.556;2023-06-01T15:43:39;13.60;99.90
51908;DHT22;39320;53.214;6.556;2023-06-01T15:46:05;13.50;99.90
51908;DHT22;39320;53.214;6.556;2023-06-01T15:48:31;13.60;99.90
51908;DHT22;39320;53.214;6.556;2023-06-01T15:50:57;13.60;99.90
51908;DHT22;39320;53.214;6.556;2023-06-01T15:53:23;13.60;99.90
51908;DHT22;39320;53.214;6.556;2023-06-01T15:55:49;13.60;99.90
51908;DHT22;39320;53.214;6.556;2023-06-01T15:58:15;13.60;99.90
51908;DHT22;39320;53.214;6.556;2023-06-01T16:00:42;13.60;99.90
51908;DHT22;39320;53.214;6.556;2023-06-01T16:03:08;13.60;99.90
51908;DHT22;39320;53.214;6.556;2023-06-01T16:05:34;13.60;99.90
51908;DHT22;39320;53.214;6.556;2023-06-01T16:08:00;13.60;99.90
51908;DHT22;39320;53.214;6.556;2023-06-01T16:10:26;13.60;99.90
51908;DHT22;39320;53.214;6.556;2023-06-01T16:12:55;13.60;99.90
51908;DHT22;39320;53.214;6.556;2023-06-01T16:15:21;13.60;99.90
51908;DHT22;39320;53.214;6.556;2023-06-01T16:17:46;13.60;99.90
51908;DHT22;39320;53.214;6.556;2023-06-01T16:20:12;13.60;99.90